Date,TemperatureHighF,TemperatureAvgF,TemperatureLowF,DewpointHighF,DewpointAvgF,DewpointLowF,HumidityHigh,HumidityAvg,HumidityLow,PressureMaxIn,PressureMinIn,WindSpeedMaxMPH,WindSpeedAvgMPH,GustSpeedMaxMPH,PrecipitationSumIn
2013-1-1,41.7,37.1,26.1,31.1,25.4,11.3,71,62,51,29.98,29.79,37,19,37,0.13
2013-1-2,30.7,26.5,21.6,18.0,14.7,10.9,69,61,54,30.13,29.97,32,16,32,0.00
2013-1-3,32.0,24.2,15.8,22.5,10.0,0.9,71,54,45,30.18,30.04,30,13,30,0.00
2013-1-4,39.0,35.2,30.4,28.9,25.3,21.4,73,67,60,30.04,29.89,41,23,41,0.00
2013-1-5,44.1,37.4,32.5,28.9,25.6,22.6,71,63,49,30.27,29.93,32,14,32,0.00
2013-1-6,42.6,38.2,33.6,36.5,32.5,24.8,89,80,70,30.23,29.96,27,11,27,0.00
2013-1-7,44.8,37.9,31.5,32.2,28.5,23.9,80,69,54,30.41,30.00,21,8,21,0.00
2013-1-8,46.9,41.1,31.3,38.3,34.7,24.3,88,78,69,30.44,30.34,26,12,26,0.00
2013-1-9,46.4,41.7,34.9,41.5,37.6,32.2,90,86,78,30.40,30.10,28,9,28,0.00
2013-1-10,48.0,42.4,35.6,39.7,30.1,26.8,84,62,49,30.55,30.14,32,14,32,0.00
2013-1-11,44.8,39.3,32.5,42.6,33.4,25.7,92,79,70,30.54,30.18,29,9,29,0.14
2013-1-12,49.5,46.0,43.5,47.3,43.9,41.5,93,92,91,30.18,30.10,26,9,26,0.17
2013-1-13,48.2,46.0,43.7,45.7,43.5,41.5,92,91,88,30.18,30.03,11,4,11,0.03
2013-1-14,52.2,48.0,39.9,49.6,44.2,33.6,93,87,68,30.26,29.96,24,10,24,0.03
2013-1-15,42.3,38.9,36.0,39.4,34.6,29.8,92,85,71,30.32,30.21,13,5,13,0.22
2013-1-16,38.7,36.8,34.2,36.9,34.3,30.0,93,91,72,30.24,29.78,30,9,30,0.52
2013-1-17,45.5,39.8,34.7,36.7,32.1,22.6,93,74,61,30.09,29.89,26,12,26,0.03
2013-1-18,34.7,28.6,25.0,23.7,13.6,5.4,72,54,37,30.51,30.00,27,11,27,0.00
2013-1-19,48.6,40.8,29.1,37.4,31.1,16.7,80,69,58,30.44,29.96,45,21,45,0.00
2013-1-20,52.3,43.7,31.6,38.7,33.4,17.1,79,67,46,29.98,29.65,32,17,32,0.00
2013-1-21,34.9,30.4,25.0,28.0,19.6,12.2,86,65,49,30.12,29.80,22,8,23,0.00
2013-1-22,28.9,23.2,16.0,25.0,10.3,0.9,85,59,40,30.12,29.78,40,18,40,0.00
2013-1-23,21.7,15.2,11.3,3.6,0.5,-1.5,61,52,40,30.20,30.11,27,16,27,0.00
2013-1-24,23.9,16.2,10.2,5.9,1.4,-2.2,69,53,37,30.31,30.13,40,18,40,0.00
2013-1-25,27.5,20.7,14.0,17.4,7.0,1.2,78,55,41,30.37,30.05,34,13,34,0.00
2013-1-26,28.6,21.3,16.0,16.2,11.7,6.4,81,67,50,30.30,30.01,32,12,32,0.00
2013-1-27,34.7,24.6,17.4,12.2,8.6,4.6,72,52,34,30.50,30.30,31,14,31,0.00
2013-1-28,37.2,32.0,25.3,33.8,20.7,4.6,88,65,40,30.49,30.01,19,6,19,0.08
2013-1-29,45.5,38.0,33.4,37.9,33.6,30.2,88,84,73,30.20,30.00,19,6,19,0.08
2013-1-30,57.9,50.1,40.1,53.8,46.9,36.9,91,89,85,30.15,29.50,36,17,36,0.00
2013-1-31,55.2,46.1,33.4,52.9,37.9,17.6,92,74,49,29.68,29.08,54,30,54,0.27
2013-2-1,34.9,30.6,24.6,22.6,15.1,9.1,64,52,39,30.16,29.68,46,22,46,0.00
2013-2-2,33.3,26.2,22.6,18.9,13.4,9.9,63,58,46,30.30,30.09,32,16,32,0.00
2013-2-3,36.9,30.6,23.7,31.3,22.2,18.1,82,71,57,29.99,29.75,18,7,18,0.00
2013-2-4,33.6,28.6,25.0,18.3,14.2,9.3,74,56,41,29.99,29.77,31,17,31,0.00
2013-2-5,30.7,29.0,27.9,24.8,21.2,10.8,83,73,48,30.02,29.92,18,7,21,0.00
2013-2-6,40.3,33.0,28.9,31.8,24.0,9.0,85,71,42,30.33,29.92,26,11,26,0.00
2013-2-7,36.5,29.4,23.2,21.0,13.4,6.6,69,51,42,30.53,30.33,21,9,21,0.00
2013-2-8,35.8,32.9,28.2,32.2,29.3,20.5,92,87,69,30.43,29.46,55,13,55,0.11
2013-2-9,29.7,24.5,18.1,27.7,22.3,15.6,92,91,90,30.25,29.50,39,17,39,0.14
2013-2-10,33.6,24.3,15.1,26.8,20.2,12.4,91,85,72,30.45,30.25,25,-139,25,0.02
2013-2-11,45.5,38.6,28.4,43.3,35.9,22.8,93,90,78,30.37,29.65,28,-529,28,0.44
2013-2-12,44.2,39.6,35.6,38.5,34.7,28.4,93,83,71,29.93,29.67,34,-238,34,0.03
2013-2-13,44.1,36.8,32.2,30.6,28.1,25.2,79,71,56,29.92,29.67,17,7,17,0.00
2013-2-14,43.7,36.0,30.6,39.4,32.0,28.2,92,85,70,30.02,29.70,15,-356,15,0.11
2013-2-15,49.8,41.0,36.0,40.8,36.5,31.6,90,84,70,30.09,29.94,24,9,24,0.00
2013-2-16,40.8,37.1,32.7,36.7,33.0,30.4,91,85,75,29.95,29.66,22,7,22,0.03
2013-2-17,32.7,26.6,19.2,30.4,16.3,5.7,91,67,44,29.80,29.47,50,25,50,0.03
2013-2-18,35.4,26.1,18.1,20.1,9.9,6.4,63,51,34,30.22,29.80,49,23,49,0.00
2013-2-19,49.1,40.3,31.8,42.6,32.9,19.2,90,75,58,30.22,29.62,25,12,25,0.22
2013-2-20,40.5,34.1,26.8,37.8,22.1,12.7,90,62,46,29.87,29.62,41,21,41,0.11
2013-2-21,36.1,29.1,26.1,20.3,17.2,14.5,71,61,50,30.22,29.86,43,22,43,0.00
2013-2-22,45.9,34.1,25.2,31.8,24.7,18.5,76,69,56,30.42,30.22,21,9,21,0.00
2013-2-23,42.6,38.3,35.4,36.3,33.2,27.9,89,82,74,30.33,29.80,28,-329,28,0.08
2013-2-24,42.6,38.5,34.0,40.1,35.8,31.6,92,90,87,29.90,29.66,22,-17,22,0.11
2013-2-25,43.0,36.7,31.5,37.0,32.6,29.5,92,85,73,30.26,29.90,17,6,17,0.03
2013-2-26,47.8,39.8,34.3,39.6,33.9,30.6,88,80,66,30.34,30.06,37,11,37,0.00
2013-2-27,44.1,42.1,38.8,41.7,39.8,35.1,92,91,86,30.06,29.54,54,25,54,0.95
2013-2-28,51.3,42.5,37.8,47.5,39.8,35.6,93,90,84,29.64,29.54,13,5,13,0.00
2013-3-1,52.3,42.0,36.3,38.1,33.9,30.0,88,74,53,29.71,29.54,21,8,21,0.00
2013-3-2,41.2,37.9,33.6,31.5,29.2,27.7,80,71,62,29.73,29.65,25,11,25,0.00
2013-3-3,42.8,36.4,32.0,29.1,27.0,25.2,78,69,56,29.70,29.60,24,11,24,0.00
2013-3-4,42.6,35.0,30.0,27.9,24.7,22.1,78,66,52,29.79,29.65,36,19,36,0.00
2013-3-5,52.5,38.1,30.7,34.9,28.9,23.4,83,70,49,30.06,29.80,26,8,26,0.00
2013-3-6,48.4,39.9,35.1,38.5,34.4,30.4,88,81,63,30.03,29.88,50,20,50,0.00
2013-3-7,43.3,37.6,33.8,33.6,32.1,30.2,90,81,66,29.97,29.84,48,25,48,0.03
2013-3-8,37.6,34.8,32.5,34.7,32.3,30.2,92,91,78,30.10,29.91,33,14,33,0.22
2013-3-9,55.0,40.8,34.2,39.0,29.8,24.4,80,66,44,30.35,30.10,24,10,24,0.08
2013-3-10,49.8,39.0,31.6,39.0,32.8,28.0,87,79,64,30.43,30.35,19,8,20,0.00
2013-3-11,54.9,44.2,37.0,46.0,38.8,32.9,88,81,70,30.35,30.15,20,9,20,0.00
2013-3-12,52.0,48.0,42.6,48.2,44.6,39.4,92,88,82,30.16,29.74,54,19,54,0.41
2013-3-13,49.8,42.9,37.9,43.5,35.3,31.1,92,75,51,29.84,29.75,28,13,28,0.03
2013-3-14,39.7,34.9,30.4,32.5,22.7,15.6,86,62,43,29.89,29.78,38,18,38,0.00
2013-3-15,44.1,34.9,27.9,32.5,21.6,13.3,75,58,46,29.93,29.71,37,19,37,0.00
2013-3-16,45.0,38.2,34.0,30.0,24.3,17.4,75,58,36,29.90,29.73,18,-914,18,0.00
2013-3-17,43.3,35.1,29.7,29.3,18.8,12.4,78,53,34,30.32,29.90,28,-10,28,0.00
2013-3-18,41.2,32.9,24.8,29.1,18.8,9.7,80,56,43,30.46,30.13,34,13,34,0.00
2013-3-19,44.4,37.5,34.0,41.9,35.0,29.1,92,90,81,30.13,29.59,48,21,48,0.57
2013-3-20,44.1,36.8,31.6,32.0,26.6,23.2,91,67,48,29.83,29.73,35,17,35,0.00
2013-3-21,44.1,36.9,32.5,30.9,26.8,23.0,77,67,55,29.83,29.61,16,7,16,0.00
2013-3-22,42.4,35.0,28.2,27.7,21.9,15.6,74,59,48,29.82,29.65,32,17,32,0.00
2013-3-23,47.8,39.4,33.6,27.5,24.4,21.4,70,56,36,29.87,29.71,39,20,39,0.00
2013-3-24,51.8,39.7,33.3,31.6,26.8,21.6,74,60,43,29.90,29.72,22,11,23,0.00
2013-3-25,47.7,40.1,35.6,36.1,32.2,28.9,91,74,60,29.77,29.44,33,13,33,0.06
2013-3-26,51.3,41.0,34.2,39.0,33.4,25.2,92,75,55,29.82,29.51,17,7,24,0.06
2013-3-27,50.0,41.1,33.8,35.8,29.7,24.4,71,64,52,29.89,29.79,31,11,31,0.00
2013-3-28,52.2,43.5,37.8,38.1,34.6,30.7,81,71,57,30.06,29.88,18,8,18,0.00
2013-3-29,52.2,45.0,39.4,37.9,35.5,32.5,80,70,54,30.09,30.01,29,11,29,0.00
2013-3-30,54.1,45.3,39.2,36.7,33.9,30.9,78,65,42,30.14,30.04,32,12,32,0.00
2013-3-31,56.1,44.9,35.2,43.7,38.6,31.6,91,79,61,30.15,29.68,34,-30,34,0.08
2013-4-1,58.5,45.8,37.0,49.3,40.6,22.8,92,83,57,29.84,29.59,31,-339,31,0.08
2013-4-2,46.2,38.0,32.7,24.8,20.0,15.3,65,49,32,30.02,29.84,40,19,40,0.00
2013-4-3,49.1,38.7,33.1,27.5,18.8,15.6,56,45,30,30.24,30.02,35,21,35,0.00
2013-4-4,52.3,39.1,32.5,34.0,25.4,16.7,78,58,44,30.38,30.13,31,14,32,0.00
2013-4-5,55.6,46.0,40.3,40.8,34.5,23.7,81,66,39,30.13,29.68,32,11,32,0.00
2013-4-6,50.4,41.3,35.6,30.4,23.4,16.2,72,50,27,30.35,29.91,31,13,31,0.00
2013-4-7,45.9,38.3,35.4,39.6,32.7,29.7,84,80,72,30.35,30.30,11,-703,11,0.00
2013-4-18,61.3,53.2,44.4,48.9,44.3,40.5,86,72,55,30.42,30.18,21,11,21,0.00
2013-4-19,65.7,56.4,50.7,58.6,52.5,45.7,92,87,77,30.18,29.73,49,19,49,0.00
2013-4-20,59.5,52.5,46.2,57.2,45.4,34.3,92,78,53,30.22,29.68,42,16,42,0.33
2013-4-21,57.4,44.8,36.5,37.2,30.2,24.3,73,57,41,30.68,30.22,28,10,28,0.00
2013-4-22,58.5,46.1,38.5,44.4,36.8,33.3,82,71,56,30.71,30.56,37,16,37,0.00
2013-4-23,49.3,45.0,41.4,43.3,39.7,34.3,85,81,75,30.56,30.03,28,14,28,0.00
2013-4-24,63.9,50.4,44.4,50.9,43.9,39.7,89,79,59,30.03,29.91,28,14,28,0.00
2013-4-25,62.4,53.2,47.8,48.9,42.7,36.7,89,69,41,30.29,29.91,26,11,26,0.03
2013-4-26,65.8,51.8,43.0,49.1,42.1,36.3,86,70,49,30.42,30.28,20,8,20,0.00
2013-4-27,63.1,50.7,43.3,50.9,44.7,39.2,88,80,63,30.43,30.34,23,8,23,0.00
2013-4-28,67.1,50.9,41.0,49.1,43.4,37.9,90,77,43,30.37,30.28,18,8,18,0.00
2013-4-29,64.9,54.4,48.0,51.3,46.2,42.8,88,75,58,30.30,30.25,16,7,16,0.00
2013-4-30,68.9,54.3,46.6,48.4,42.7,37.6,84,67,36,30.38,30.25,21,8,21,0.00
2013-5-1,67.6,52.6,41.7,53.1,44.4,36.3,84,74,57,30.51,30.36,28,8,28,0.00
2013-5-2,72.5,55.7,44.2,52.0,46.0,41.0,89,72,43,30.49,30.38,27,7,27,0.00
2013-5-3,66.4,54.0,46.4,51.6,44.6,38.8,86,71,57,30.50,30.37,32,11,32,0.00
2013-5-4,67.5,51.8,44.2,49.3,43.9,38.8,87,75,50,30.38,30.28,30,13,30,0.00
2013-5-5,68.7,51.2,41.9,52.3,43.9,37.6,88,77,54,30.33,30.27,27,11,27,0.00
2013-5-6,71.4,53.7,45.1,55.4,46.2,40.6,86,76,55,30.32,30.20,18,7,18,0.00
2013-5-7,75.4,57.9,47.7,61.2,51.6,44.4,89,80,60,30.22,30.15,15,6,15,0.00
2013-5-8,67.6,59.1,54.0,59.7,54.8,50.7,90,86,75,30.18,30.06,33,12,33,0.03
2013-5-9,68.7,59.0,54.9,63.5,55.4,51.6,90,88,79,30.06,29.89,18,6,18,0.38
2013-5-10,79.3,60.9,53.1,62.4,54.4,50.7,92,80,52,30.01,29.93,21,9,21,0.00
2013-5-11,66.4,59.2,54.9,61.0,55.4,50.7,91,87,79,29.97,29.73,29,12,29,0.35
2013-5-12,72.5,59.9,53.4,57.4,50.7,32.7,91,74,42,29.88,29.65,32,11,32,0.06
2013-5-13,64.2,52.6,47.7,42.4,36.6,32.2,64,55,41,30.06,29.88,31,16,31,0.00
2013-5-14,60.6,51.0,43.3,44.1,38.1,32.0,79,62,44,30.10,30.02,22,11,22,0.00
2013-5-15,64.8,55.0,45.3,53.8,48.4,41.0,88,79,62,30.11,29.72,28,10,28,0.00
2013-5-16,77.2,61.1,50.7,58.5,51.6,47.8,91,73,44,29.82,29.71,27,10,27,0.00
2013-5-17,71.4,60.6,52.0,50.2,47.2,42.4,79,62,46,30.24,29.82,25,10,25,0.00
2013-5-18,73.2,58.8,49.3,58.1,50.6,45.3,88,75,56,30.35,30.24,23,7,23,0.00
2013-5-19,67.8,58.4,51.4,57.2,52.4,46.9,92,81,67,30.39,30.24,24,8,24,0.11
2013-5-20,77.5,63.3,56.1,67.5,58.9,53.8,92,86,68,30.24,29.98,25,11,25,0.14
2013-5-21,80.1,67.4,59.4,68.4,61.5,56.3,91,82,66,30.00,29.87,26,7,26,0.00
2013-5-22,77.0,63.4,55.8,66.2,57.3,52.0,87,81,66,29.99,29.91,19,7,19,0.00
2013-5-23,75.6,65.6,60.3,67.1,60.7,56.3,89,85,70,29.96,29.86,34,15,34,0.19
2013-5-24,75.0,62.9,51.3,67.3,58.0,47.1,90,84,72,29.86,29.69,28,10,28,0.49
2013-5-25,57.9,50.6,44.4,50.4,45.5,41.2,89,83,73,29.85,29.77,35,15,35,0.11
2013-5-26,63.7,53.7,45.1,48.9,43.1,40.3,88,68,52,30.17,29.83,38,17,38,0.03
2013-5-27,70.9,58.2,50.0,50.5,46.7,41.9,85,67,44,30.22,30.13,27,12,27,0.00
2013-5-28,73.2,59.2,50.0,59.0,51.9,45.7,87,77,56,30.27,30.19,24,6,24,0.02
2013-5-29,78.6,64.8,57.2,67.6,58.9,54.0,89,82,66,30.19,30.04,22,8,22,0.14
2013-5-30,87.6,71.4,60.3,71.6,63.0,55.9,88,76,56,30.14,30.06,24,9,24,0.00
2013-5-31,88.0,73.8,64.9,72.0,64.1,59.2,84,73,49,30.14,30.02,25,8,25,0.00
2013-6-1,81.3,71.4,64.6,69.3,63.6,59.4,87,77,61,30.05,29.96,24,9,24,0.00
2013-6-2,78.8,69.7,64.4,66.7,63.1,60.4,88,80,65,29.97,29.84,32,13,32,0.00
2013-6-3,72.9,66.0,61.3,67.3,62.1,58.1,91,87,81,29.88,29.82,30,11,30,0.24
2013-6-4,72.0,63.3,55.0,60.6,50.2,44.1,90,63,46,30.09,29.84,26,10,26,0.00
2013-6-5,76.3,63.0,55.0,57.4,52.5,48.9,84,70,50,30.23,30.09,19,8,19,0.00
2013-6-6,76.1,64.4,55.0,64.4,57.6,51.3,88,79,64,30.21,30.09,20,7,20,0.00
2013-6-7,62.1,59.8,57.9,58.5,56.6,55.0,93,89,84,30.09,29.70,33,16,33,2.66
2013-6-8,76.6,65.0,57.2,66.9,60.7,55.2,93,86,70,30.05,29.54,36,13,36,1.01
2013-6-9,80.4,67.5,59.4,64.2,59.5,56.5,90,77,55,30.20,30.04,18,8,18,0.00
2013-6-10,74.7,65.5,59.9,65.3,59.8,56.1,92,82,71,30.21,29.94,30,10,30,1.14
2013-6-11,81.3,67.7,59.9,71.6,63.7,57.6,93,87,68,29.94,29.59,26,11,28,1.98
2013-6-12,75.6,67.0,61.3,60.3,56.4,52.5,87,70,52,29.86,29.63,34,14,34,0.00
2013-6-13,65.7,60.2,56.1,59.4,55.2,52.0,91,84,75,29.84,29.53,39,11,39,0.35
2013-6-14,73.6,60.8,54.1,60.6,55.4,51.8,93,83,61,29.82,29.53,28,11,28,0.98
2013-6-15,77.4,66.5,59.0,59.7,56.2,53.4,87,71,46,29.98,29.82,23,9,23,0.00
2013-6-16,78.1,67.7,59.2,64.8,60.2,55.4,88,78,59,29.99,29.77,26,9,26,0.00
2013-6-17,82.4,69.8,63.0,70.3,63.4,59.2,89,81,64,29.95,29.83,21,8,21,0.06
2013-6-18,80.8,67.6,60.6,70.7,62.4,57.4,90,84,68,29.94,29.87,20,5,20,0.14
2013-6-19,80.1,66.8,58.6,63.9,59.2,55.9,92,78,55,30.18,29.87,17,8,17,0.17
2013-6-20,80.4,66.2,56.8,63.5,56.1,49.3,88,71,48,30.30,30.17,21,8,21,0.00
2013-6-21,81.9,69.0,61.3,65.8,58.5,55.8,84,70,51,30.32,30.26,21,10,21,0.00
2013-6-22,79.7,69.3,63.5,65.5,60.5,55.6,88,74,56,30.29,30.17,14,-343,14,0.00
2013-6-23,84.0,73.0,64.8,70.9,65.9,61.3,89,79,63,30.22,30.09,23,10,23,0.00
2013-6-24,71.8,70.4,69.4,68.7,67.0,66.0,90,89,87,30.10,30.04,15,8,15,0.00
2013-6-25,88.0,87.8,87.1,74.3,74.1,73.9,65,64,64,29.86,29.84,0,-999,0,0.00
2013-6-26,79.0,73.8,70.2,69.4,67.2,65.1,86,80,70,29.86,29.75,24,10,24,0.00
2013-6-27,81.0,72.3,65.5,72.7,66.9,62.1,90,84,72,29.86,29.71,21,8,21,0.00
2013-6-28,82.9,72.7,67.3,73.9,68.4,64.0,93,87,71,29.71,29.54,27,14,27,0.24
2013-6-29,82.6,73.7,68.7,72.7,68.2,65.3,91,83,69,29.77,29.52,25,10,25,0.00
2013-6-30,79.0,73.2,69.4,72.7,68.0,65.7,90,84,73,29.99,29.75,21,9,21,0.19
2013-7-1,81.1,73.3,69.4,73.4,68.9,66.4,90,86,76,30.11,29.97,21,11,21,0.22
2013-7-2,84.9,75.2,70.7,75.6,69.8,66.9,89,84,70,30.21,30.11,18,9,18,0.00
2013-7-3,85.8,76.4,70.7,75.7,70.7,67.5,90,83,70,30.27,30.19,27,10,27,0.00
2013-7-4,88.2,77.9,71.6,77.0,71.9,67.8,91,82,67,30.27,30.17,26,10,26,0.00
2013-7-5,89.4,77.7,71.4,77.2,71.3,67.5,90,81,65,30.22,30.10,26,11,26,0.00
2013-7-6,87.8,78.3,72.9,75.9,71.9,68.7,89,81,65,30.13,30.02,23,11,23,0.00
2013-7-7,91.2,80.5,74.5,77.7,72.8,70.0,87,78,58,30.05,29.92,22,9,22,0.00
2013-7-8,89.1,77.7,72.7,74.8,70.5,67.8,87,79,61,30.05,29.94,24,11,24,0.00
2013-7-9,83.1,75.6,69.6,74.8,70.1,65.8,90,83,73,30.10,30.02,21,5,21,0.00
2013-7-10,84.4,76.8,72.7,75.4,71.7,68.9,90,85,73,30.05,29.82,26,10,26,0.00
2013-7-11,82.4,76.0,71.8,75.7,71.5,68.5,91,86,79,29.91,29.81,20,6,23,0.11
2013-7-12,84.7,74.3,68.9,73.2,67.9,63.9,90,81,66,30.15,29.90,21,7,21,0.03
2013-7-13,83.7,74.0,69.3,75.4,69.4,65.3,90,86,76,30.31,30.13,22,9,22,0.14
2013-7-14,87.3,77.6,71.6,76.3,72.0,68.7,92,84,66,30.32,30.22,19,6,19,0.00
2013-7-15,90.5,79.1,72.3,76.6,72.3,69.3,90,80,62,30.23,30.12,18,8,18,0.00
2013-7-16,95.5,81.2,72.1,76.8,71.6,68.2,88,74,51,30.27,30.12,9,3,9,0.00
2013-7-17,86.2,76.9,72.3,74.8,71.0,68.7,89,82,62,30.31,30.13,13,5,13,0.00
2013-7-18,94.6,81.7,74.8,78.6,73.8,70.5,87,78,59,30.13,29.96,16,8,17,0.00
2013-7-19,91.8,81.9,76.5,80.4,75.1,71.2,90,80,67,29.98,29.79,32,12,32,0.00
2013-7-20,90.9,82.0,76.8,77.4,73.8,70.2,88,77,62,29.82,29.71,29,12,29,0.00
2013-7-21,88.0,77.4,70.2,74.5,68.8,64.4,88,75,59,29.98,29.82,12,4,12,0.13
2013-7-22,78.6,72.9,70.3,72.1,68.7,66.6,90,87,77,29.99,29.85,17,7,17,0.00
2013-7-23,88.0,77.1,71.6,76.8,71.8,68.2,91,84,68,29.86,29.57,22,10,22,0.06
2013-7-24,87.1,76.6,70.3,75.4,70.1,63.3,92,81,65,29.90,29.59,21,6,21,0.06
2013-7-25,72.1,67.7,62.8,63.9,60.0,55.9,90,77,70,30.05,29.90,19,8,19,0.03
2013-7-26,75.0,70.4,64.9,70.5,66.1,62.8,93,86,77,30.01,29.94,18,8,18,0.24
2013-7-27,83.7,75.6,67.6,72.7,68.9,64.9,92,80,65,30.08,29.98,20,10,20,0.00
2013-7-28,82.9,73.6,70.5,72.7,68.5,66.7,89,85,68,29.99,29.92,17,4,19,0.00
2013-7-31,84.6,78.7,72.5,66.4,64.3,61.5,73,62,49,30.14,30.06,0,-999,0,0.00
2013-8-1,82.6,74.8,70.0,70.0,67.4,64.2,86,78,64,30.01,29.91,0,-999,0,0.03
2013-8-2,83.3,77.4,72.9,68.7,67.4,65.3,84,72,59,29.90,29.85,0,-999,0,0.08
2013-8-3,79.7,73.3,69.4,69.1,66.5,64.2,86,79,69,29.91,29.83,0,-999,0,0.00
2013-8-4,82.4,71.0,63.1,67.6,62.3,58.1,89,75,53,29.87,29.81,0,-999,0,0.22
2013-8-5,81.9,70.6,61.3,59.5,55.2,50.2,83,60,37,30.04,29.97,0,-999,0,0.00
2013-8-6,83.3,69.4,60.4,66.9,60.4,54.0,86,74,56,30.16,30.04,0,-999,0,0.00
2013-8-7,82.6,73.0,67.1,67.3,64.2,61.7,84,75,56,30.19,30.13,0,-999,0,0.00
2013-8-8,83.3,74.6,69.4,73.6,68.7,64.8,89,82,71,30.13,30.04,0,-999,0,0.27
2013-8-9,82.6,74.8,72.3,75.6,71.1,68.9,92,88,78,30.00,29.81,36,16,36,0.33
2013-8-10,82.6,73.8,67.3,70.5,66.7,59.0,93,79,61,30.04,29.81,24,10,24,0.03
2013-8-11,80.8,68.7,59.9,64.0,58.0,52.3,82,70,49,30.11,30.03,17,7,17,0.00
2013-8-12,81.5,73.3,67.3,71.4,66.8,63.3,89,80,66,30.05,29.94,10,4,12,0.00
2013-8-13,77.2,70.3,67.6,72.0,66.7,64.4,91,88,80,29.94,29.70,16,3,16,0.27
2013-8-14,76.5,67.8,62.2,64.6,56.9,53.6,89,69,50,29.99,29.71,21,11,22,0.00
2013-8-15,78.1,66.7,58.1,61.0,56.6,53.2,85,71,52,30.14,29.99,19,8,19,0.00
2013-8-16,80.4,70.6,64.0,65.3,61.1,56.8,88,73,48,30.21,30.12,18,7,18,0.00
2013-8-17,83.3,69.7,61.9,64.2,61.4,58.3,89,76,46,30.29,30.21,12,4,12,0.00
2013-8-18,80.8,70.5,64.2,68.9,63.5,58.6,89,79,64,30.28,30.12,15,4,15,0.00
2013-8-19,76.8,69.9,63.7,68.5,63.8,57.4,87,81,73,30.12,30.01,18,8,18,0.00
2013-8-20,83.3,72.6,66.6,67.1,65.3,63.3,91,79,54,30.13,30.02,21,9,21,0.00
2013-8-21,86.5,74.6,66.6,70.0,66.6,63.1,90,77,52,30.18,30.08,17,6,17,0.00
2013-8-22,80.1,73.4,70.2,75.6,69.4,66.4,92,87,79,30.08,29.87,22,8,22,0.27
2013-8-23,83.3,73.0,65.8,68.2,65.8,61.3,92,79,55,30.10,29.85,15,5,15,0.00
2013-8-24,80.1,67.7,60.4,63.5,58.1,54.0,87,72,54,30.35,30.10,19,7,19,0.00
2013-8-25,81.9,68.3,59.5,63.3,59.2,54.3,90,74,44,30.38,30.23,17,7,17,0.00
2013-8-26,80.4,72.2,68.9,68.9,64.5,59.5,91,77,67,30.23,29.93,21,10,21,0.25
2013-8-27,84.0,72.8,69.1,75.6,69.2,66.0,93,89,72,29.93,29.82,13,6,13,1.47
2013-8-28,81.5,72.6,68.4,72.3,68.4,66.0,93,87,73,29.93,29.86,20,5,20,0.00
2013-8-29,78.8,70.6,64.0,70.5,65.3,59.2,90,84,72,30.05,29.92,15,7,15,0.00
2013-8-30,79.7,69.9,61.3,70.7,64.5,57.7,90,83,73,30.04,29.87,16,7,16,0.00
2013-8-31,82.9,74.7,70.3,74.3,70.1,67.1,91,86,74,29.88,29.83,22,11,22,0.00
2013-9-1,83.7,75.9,72.3,75.7,71.3,68.7,91,86,76,29.89,29.83,19,8,19,0.00
2013-9-2,78.6,74.3,72.3,74.5,71.0,69.3,92,89,86,29.86,29.72,17,8,17,0.46
2013-9-3,77.5,70.9,64.9,73.8,68.4,62.6,93,92,86,29.85,29.70,19,5,19,1.04
2013-9-4,77.4,68.6,62.2,64.8,61.7,57.9,92,79,61,29.95,29.85,26,11,26,0.00
2013-9-5,79.5,70.0,58.6,65.3,60.7,52.2,87,73,50,30.13,29.89,18,6,18,0.00
2013-9-6,72.0,61.8,53.8,54.3,49.5,45.7,83,65,47,30.25,30.12,17,8,17,0.00
2013-9-7,75.2,66.2,59.2,60.8,55.9,51.3,83,70,55,30.13,29.91,20,9,20,0.00
2013-9-8,80.2,70.0,59.0,65.8,59.6,47.5,84,70,44,30.08,29.79,21,9,21,0.00
2013-9-9,73.6,62.0,52.7,57.0,50.3,45.1,77,66,50,30.26,30.08,17,8,17,0.00
2013-9-10,77.5,70.2,63.7,69.4,64.0,54.9,90,81,73,30.19,30.02,28,13,28,0.00
2013-9-11,86.4,75.6,70.3,76.8,70.4,67.3,91,84,70,30.12,30.01,23,10,23,0.00
2013-9-12,81.9,74.1,69.1,73.4,69.4,66.2,93,86,74,30.03,29.71,30,11,30,0.30
2013-9-13,77.4,70.7,63.5,70.5,66.2,56.8,94,86,74,29.77,29.62,19,-303,19,0.32
2013-9-14,71.4,62.3,55.9,57.2,53.8,50.4,86,74,58,30.08,29.77,19,9,19,0.00
2013-9-15,70.7,60.3,52.7,57.2,51.1,47.7,84,73,48,30.20,30.08,19,8,19,0.00
2013-9-16,72.5,64.6,54.9,59.9,57.0,45.7,84,77,62,30.22,30.04,25,6,25,0.00
2013-9-17,66.6,54.6,46.0,49.3,43.5,39.4,83,67,46,30.41,30.22,22,7,22,0.00
2013-9-18,65.8,55.4,50.2,54.1,47.8,45.3,86,77,51,30.35,30.19,17,7,17,0.00
2013-9-19,73.4,63.8,57.9,60.6,56.1,53.4,88,77,53,30.19,30.07,19,10,19,0.00
2013-9-20,76.8,65.3,56.7,65.5,59.8,53.8,92,83,65,30.11,30.02,16,6,16,0.00
2013-9-21,77.2,71.4,60.6,68.2,65.4,57.7,91,82,73,30.00,29.73,30,16,30,0.00
2013-9-22,73.9,66.1,54.9,66.2,59.5,45.3,93,80,58,29.86,29.64,35,12,35,0.52
2013-9-23,59.7,52.9,49.8,46.8,45.3,43.5,80,75,62,29.95,29.85,21,11,21,0.00
2013-9-26,57.0,56.5,56.1,52.9,51.9,50.7,86,85,81,30.12,30.11,6,2,6,0.00
2013-9-27,68.9,60.2,56.1,57.4,53.7,52.0,86,79,65,30.23,30.10,14,5,14,0.00
2013-9-30,71.4,61.3,54.7,57.7,54.9,51.3,89,80,57,30.10,29.98,13,5,13,0.00
2013-10-1,73.2,63.2,53.6,62.8,57.5,50.7,91,82,67,29.99,29.88,20,7,21,0.00
2013-10-2,74.5,66.6,61.3,65.3,61.3,57.9,90,83,72,29.99,29.87,27,9,27,0.00
2013-10-3,75.6,65.4,58.6,60.4,56.9,52.3,89,75,46,30.16,29.99,17,6,17,0.00
2013-10-4,77.5,66.2,60.4,68.2,60.5,56.5,89,82,69,30.08,30.01,17,4,17,0.00
2013-10-5,75.0,65.6,61.9,64.9,60.1,57.4,89,83,69,30.11,30.04,11,4,11,0.00
2013-10-6,67.1,63.5,61.7,62.8,60.0,58.5,90,88,84,30.17,30.09,23,11,23,0.22
2013-10-7,77.2,69.7,64.0,69.6,65.5,59.2,92,87,77,30.09,29.87,35,16,35,0.03
2013-10-8,71.1,61.3,55.9,59.7,50.4,45.7,83,68,49,30.35,29.91,21,8,21,0.00
2013-10-9,68.2,57.7,52.0,54.9,48.7,43.7,82,72,59,30.46,30.33,25,10,25,0.00
2013-10-10,68.4,60.1,53.4,59.7,53.8,48.0,85,80,72,30.33,30.11,19,9,19,0.00
2013-10-11,72.5,63.7,58.1,62.6,57.0,44.4,88,79,61,30.11,30.05,17,8,17,0.00
2013-10-12,72.9,61.1,55.8,62.1,53.0,44.4,84,75,61,30.34,30.10,30,12,30,0.00
2013-10-13,63.9,57.3,52.3,54.3,50.8,47.1,86,79,69,30.41,30.32,20,9,21,0.00
2013-10-14,64.4,54.4,47.7,54.0,48.4,44.1,89,81,65,30.43,30.27,14,5,14,0.00
2013-10-15,69.6,57.9,50.7,57.0,51.8,47.8,90,81,59,30.32,30.16,19,6,19,0.00
2013-10-16,69.3,60.4,54.0,60.3,55.1,49.8,88,83,71,30.16,29.93,18,5,18,0.00
2013-10-17,70.0,64.0,60.6,62.8,59.6,57.0,90,86,77,29.93,29.74,23,8,23,0.00
2013-10-18,67.8,63.5,56.5,61.9,54.6,45.7,90,73,60,29.95,29.65,30,14,30,0.00
2013-10-19,71.1,59.0,50.9,54.7,49.4,43.7,85,71,51,30.00,29.77,20,7,20,0.00
2013-10-20,64.4,58.2,53.4,57.4,45.2,38.1,88,64,39,30.05,29.71,25,12,25,0.02
2013-10-21,66.6,57.1,49.5,49.1,45.7,40.5,78,66,47,30.22,30.02,24,8,24,0.00
2013-10-22,70.3,60.5,52.0,55.0,51.7,43.5,81,73,55,30.02,29.73,21,10,21,0.00
2013-10-23,52.9,49.6,47.5,43.5,39.7,37.2,77,69,57,29.81,29.60,23,6,23,0.00
2013-10-24,57.4,48.6,42.4,38.5,34.5,30.6,76,60,39,29.96,29.68,32,16,32,0.00
2013-10-25,53.8,46.6,41.2,35.2,32.5,30.9,70,58,44,30.20,29.93,35,14,35,0.00
2013-10-26,56.7,50.6,44.1,43.7,37.9,32.9,78,62,45,30.22,29.91,41,16,41,0.00
2013-10-27,59.9,52.9,46.4,41.2,37.3,33.1,75,56,42,30.10,29.84,35,14,35,0.00
2013-10-28,60.8,50.6,43.0,43.2,38.4,34.5,76,63,49,30.33,30.10,26,9,26,0.00
2013-10-29,56.7,47.2,42.4,36.3,32.3,28.9,71,57,41,30.43,30.33,14,6,14,0.00
2013-10-30,60.3,51.9,44.2,50.7,44.4,35.4,87,76,62,30.38,30.20,18,4,18,0.00
2013-10-31,65.7,58.2,49.3,59.9,54.2,45.9,90,87,80,30.24,29.85,29,11,29,0.03
2013-11-1,68.2,63.8,60.4,63.0,59.2,56.1,90,85,78,29.85,29.55,48,22,48,0.08
2013-11-2,65.7,59.4,55.4,58.6,52.9,48.2,88,79,69,29.74,29.62,17,6,18,0.00
2013-11-3,57.0,49.0,36.9,48.4,38.4,24.4,79,67,51,30.40,29.74,20,8,20,0.00
2013-11-4,50.5,39.7,33.3,30.4,26.1,23.0,69,59,38,30.70,30.40,23,10,23,0.00
2013-11-5,55.9,46.1,38.5,42.3,37.0,28.8,79,71,57,30.70,30.53,18,7,18,0.00
2013-11-6,62.4,54.4,48.4,54.0,47.4,39.9,89,77,65,30.53,30.10,24,8,24,0.00
2013-11-7,64.0,56.1,43.5,60.3,52.6,36.5,92,88,76,30.10,29.71,26,14,26,0.30
2013-11-8,52.3,44.6,39.9,36.7,32.7,27.3,76,63,48,30.15,29.87,36,17,36,0.00
2013-11-9,50.2,41.6,38.3,39.2,29.6,27.0,69,62,47,30.27,30.05,28,-3,28,0.00
2013-11-10,59.9,51.8,48.2,45.5,40.4,35.6,75,65,56,30.05,29.75,43,19,43,0.00
2013-11-11,53.2,48.6,43.0,42.8,35.0,29.3,69,59,51,30.15,29.94,38,18,38,0.00
2013-11-12,53.1,40.2,31.5,40.8,31.2,21.6,90,71,57,30.20,29.91,36,17,36,0.03
2013-11-13,40.1,33.6,28.4,25.7,19.7,15.6,73,57,41,30.30,30.19,32,14,32,0.00
2013-11-14,51.3,45.0,38.3,35.2,31.2,26.4,77,59,46,30.22,30.11,40,22,40,0.00
2013-11-15,58.5,50.9,47.1,44.6,40.0,33.4,83,67,54,30.25,30.17,33,13,33,0.00
2013-11-16,58.5,51.8,47.5,47.5,43.9,36.0,88,75,58,30.33,30.22,17,8,20,0.00
2013-11-17,62.1,55.2,46.4,57.2,51.9,43.0,93,89,81,30.31,29.85,19,8,19,0.08
2013-11-18,61.3,58.1,51.3,59.5,50.4,37.0,94,77,54,29.85,29.60,49,17,49,0.27
2013-11-19,51.3,43.9,34.7,38.7,29.0,23.4,65,56,47,30.30,29.70,30,17,30,0.00
2013-11-20,46.9,36.5,30.0,23.7,21.1,17.1,67,54,35,30.69,30.30,19,8,20,0.00
2013-11-21,52.3,41.1,32.2,40.5,30.0,20.5,73,65,52,30.76,30.36,11,5,11,0.00
2013-11-22,54.1,51.9,48.7,51.3,47.3,40.5,90,84,73,30.45,29.88,27,10,27,0.05
2013-11-23,53.4,44.4,33.3,50.0,31.2,19.9,88,61,37,29.94,29.83,40,17,40,0.00
2013-11-24,33.3,27.2,24.1,22.1,11.2,6.6,64,51,41,30.27,29.87,49,28,49,0.00
2013-11-25,38.7,29.3,21.4,27.7,15.2,7.9,65,55,43,30.44,30.26,37,18,37,0.00
2013-11-26,50.7,42.7,37.9,48.6,31.1,20.8,92,64,50,30.35,29.97,36,16,36,0.19
2013-11-27,60.6,51.6,38.5,58.6,49.5,33.8,94,92,80,29.97,29.26,52,21,52,1.25
2013-11-28,40.1,33.8,29.3,34.3,21.7,15.3,81,61,46,30.48,29.57,38,18,38,0.06
2013-11-29,39.9,32.8,28.4,23.4,19.3,16.5,63,57,50,30.74,30.48,16,7,16,0.00
2013-11-30,41.7,31.5,23.0,31.8,21.6,12.4,78,67,56,30.79,30.44,23,8,23,0.00
2013-12-1,53.6,47.3,41.7,49.3,41.9,32.0,90,82,68,30.44,30.02,28,10,28,0.02
2013-12-2,47.3,42.2,39.2,41.9,38.6,36.5,90,87,80,30.02,29.91,10,3,10,0.00
2013-12-3,51.6,42.2,36.1,41.9,36.6,33.3,91,81,63,29.99,29.85,14,6,14,0.03
2013-12-4,49.1,42.1,37.0,40.1,34.8,30.7,87,76,64,30.18,29.98,14,5,14,0.00
2013-12-5,57.0,51.6,41.9,53.8,48.6,38.3,92,89,87,30.18,29.96,17,8,17,0.00
2013-12-6,56.3,49.5,39.2,54.3,47.1,37.0,93,92,88,30.12,29.89,22,9,22,0.30
2013-12-7,41.9,37.4,32.2,38.5,32.1,23.2,93,82,66,30.49,30.05,11,-968,11,0.63
2013-12-8,35.1,32.5,28.8,26.6,23.5,21.4,78,69,59,30.61,30.43,21,-503,21,0.00
2013-12-9,47.7,39.2,31.8,45.7,36.7,26.2,93,91,78,30.45,29.91,43,15,43,0.13
2013-12-10,39.0,35.7,30.6,37.2,32.6,24.4,93,88,77,30.06,29.81,34,11,34,0.19
2013-12-11,36.9,32.3,29.7,25.2,21.5,17.4,77,64,59,30.29,30.06,42,22,42,0.03
2013-12-12,31.5,25.8,23.2,20.1,13.5,8.2,72,60,47,30.31,30.12,36,13,36,0.00
2013-12-13,34.7,29.7,24.3,19.4,16.9,11.5,68,59,50,30.36,30.06,43,21,43,0.00
2013-12-14,36.9,25.8,22.5,34.7,18.2,12.0,92,73,55,30.57,30.00,49,14,49,0.17
2013-12-15,40.8,36.5,34.0,39.0,33.1,24.6,93,88,69,30.00,29.39,46,18,49,0.90
2013-12-16,35.8,30.5,24.8,27.3,17.2,11.5,72,58,45,30.23,29.78,38,18,38,0.00
2013-12-17,30.0,25.3,21.0,27.0,19.2,11.5,88,78,57,30.26,29.90,26,11,26,0.00
2013-12-18,36.3,30.3,23.9,26.2,23.3,20.3,87,75,62,30.15,29.86,30,-328,30,0.00
2013-12-19,45.7,39.0,32.9,36.3,30.9,23.9,79,73,61,30.17,30.01,0,-999,0,0.08
2013-12-20,50.9,44.8,39.6,45.3,39.0,34.3,88,80,66,30.13,29.99,0,-999,0,0.00
2013-12-21,56.7,51.3,47.7,51.3,47.3,44.6,91,86,77,30.03,29.94,28,-815,28,0.00
2013-12-22,57.9,55.2,52.3,54.3,52.2,49.5,93,89,81,30.00,29.86,42,18,42,0.03
2013-12-23,57.2,48.9,41.2,53.6,46.1,39.4,93,90,86,30.08,29.90,22,8,22,0.62
2013-12-24,41.2,36.7,30.7,39.4,28.1,18.9,93,71,56,30.26,30.04,27,10,27,0.03
2013-12-25,30.7,25.6,20.3,22.8,13.7,9.5,73,60,48,30.54,30.26,29,10,29,0.00
2013-12-26,43.7,35.9,30.6,36.9,29.0,22.8,83,76,70,30.47,30.11,17,-908,17,0.00
2013-12-27,39.4,34.4,30.0,27.1,25.2,23.4,81,69,57,30.34,30.24,19,-935,19,0.00
2013-12-28,48.4,42.2,35.4,38.7,34.3,27.0,83,74,64,30.28,30.06,32,-192,32,0.00
2013-12-29,51.1,44.4,40.5,49.1,39.9,35.8,93,84,74,30.07,29.33,31,-288,31,0.95
2013-12-30,45.5,36.7,22.1,41.2,29.9,12.4,93,77,56,30.18,29.56,29,13,29,0.08
2013-12-31,31.1,24.9,18.7,22.5,15.5,9.7,74,67,56,30.23,30.07,36,12,36,0.00
2014-1-1,32.2,28.4,24.3,19.8,15.5,11.8,66,58,48,30.42,30.23,26,12,26,0.00
2014-1-2,31.5,27.7,16.7,27.3,23.0,13.5,90,83,66,30.32,29.68,34,15,34,0.00